Time;durP1;ratioP1;P1;durP2;ratioP2;P2;SDS_P1;SDS_P2;PMS_P1;PMS_P2;Temp;Humidity;BMP_temperature;BMP_pressure;BME280_temperature;BME280_humidity;BME280_pressure;Samples;Min_cycle;Max_cycle;Signal;HPM_P1;HPM_P2
2022/08/15 00:01:52;;;;;;;;;3.67;3.67;;;;;;;;5115392;27;45326;-75
2022/08/15 00:04:18;;;;;;;;;4.00;4.00;;;;;;;;5097712;27;45340;-76
2022/08/15 00:06:45;;;;;;;;;4.67;4.67;;;;;;;;5098052;27;45291;-76
2022/08/15 00:09:15;;;;;;;;;3.67;3.00;;;;;;;;5116279;27;45302;-76
2022/08/15 00:11:42;;;;;;;;;5.67;5.67;;;;;;;;5098288;27;45463;-76
2022/08/15 00:14:10;;;;;;;;;3.00;3.00;;;;;;;;5111841;27;45441;-76
2022/08/15 00:16:37;;;;;;;;;4.67;4.00;;;;;;;;5110067;27;47185;-76
2022/08/15 00:19:04;;;;;;;;;4.33;4.33;;;;;;;;5117157;27;45327;-77
2022/08/15 00:21:30;;;;;;;;;4.33;4.00;;;;;;;;5116779;27;45308;-76
2022/08/15 00:23:56;;;;;;;;;4.00;4.00;;;;;;;;5117169;27;45492;-76
2022/08/15 00:26:22;;;;;;;;;5.33;5.33;;;;;;;;5116511;27;46302;-77
2022/08/15 00:28:47;;;;;;;;;4.00;3.33;;;;;;;;5116802;27;45357;-76
2022/08/15 00:31:13;;;;;;;;;3.67;2.67;;;;;;;;5116547;27;45358;-76
2022/08/15 00:33:39;;;;;;;;;4.00;4.00;;;;;;;;5103047;27;45295;-76
2022/08/15 00:36:07;;;;;;;;;4.33;3.33;;;;;;;;5106208;27;46215;-76
2022/08/15 00:38:33;;;;;;;;;4.33;4.33;;;;;;;;5115523;27;45420;-76
2022/08/15 00:43:48;;;;;;;;;4.00;4.00;;;;;;;;5101782;27;45520;-76
2022/08/15 00:46:14;;;;;;;;;3.33;3.33;;;;;;;;5116859;27;47199;-76
2022/08/15 00:48:43;;;;;;;;;3.33;3.33;;;;;;;;5116523;27;45440;-76
2022/08/15 00:51:22;;;;;;;;;5.67;3.33;;;;;;;;5116994;27;45482;-76
2022/08/15 00:53:53;;;;;;;;;2.33;2.33;;;;;;;;5120063;27;45451;-76
2022/08/15 00:56:19;;;;;;;;;5.33;5.33;;;;;;;;5120098;27;46210;-76
2022/08/15 00:58:45;;;;;;;;;3.33;3.33;;;;;;;;5120089;27;45309;-76
2022/08/15 01:01:11;;;;;;;;;3.33;3.33;;;;;;;;5118848;27;45325;-77
2022/08/15 01:03:38;;;;;;;;;4.00;4.00;;;;;;;;5119768;27;45465;-76
2022/08/15 01:06:04;;;;;;;;;3.00;3.00;;;;;;;;5120083;27;47016;-76
2022/08/15 01:08:35;;;;;;;;;5.00;5.00;;;;;;;;5110675;27;45324;-77
2022/08/15 01:11:02;;;;;;;;;4.00;4.00;;;;;;;;5103393;27;45406;-76
2022/08/15 01:13:28;;;;;;;;;4.00;4.00;;;;;;;;5115354;27;45529;-76
2022/08/15 01:15:53;;;;;;;;;4.33;4.33;;;;;;;;5119509;27;46362;-76
2022/08/15 01:18:18;;;;;;;;;3.00;3.00;;;;;;;;5105590;27;45397;-76
2022/08/15 01:20:44;;;;;;;;;3.67;3.67;;;;;;;;5109419;27;45532;-76
2022/08/15 01:23:33;;;;;;;;;3.00;3.00;;;;;;;;5117092;27;45604;-76
2022/08/15 01:26:00;;;;;;;;;3.00;2.67;;;;;;;;5113988;27;46114;-76
2022/08/15 01:28:33;;;;;;;;;3.00;3.00;;;;;;;;5112380;27;45488;-76
2022/08/15 01:31:03;;;;;;;;;4.00;4.00;;;;;;;;5119824;27;45588;-76
2022/08/15 01:33:31;;;;;;;;;3.33;3.33;;;;;;;;5113862;27;45341;-76
2022/08/15 01:35:58;;;;;;;;;8.33;4.00;;;;;;;;5101453;27;46474;-76
2022/08/15 01:38:30;;;;;;;;;3.33;3.33;;;;;;;;5116850;27;45508;-76
2022/08/15 01:41:04;;;;;;;;;4.33;4.33;;;;;;;;5118516;27;45219;-76
2022/08/15 01:43:31;;;;;;;;;5.00;5.00;;;;;;;;5104601;27;45446;-76
2022/08/15 01:45:59;;;;;;;;;5.00;5.00;;;;;;;;5117115;27;46118;-76
2022/08/15 01:48:30;;;;;;;;;4.00;4.00;;;;;;;;5118855;27;45584;-76
2022/08/15 01:50:59;;;;;;;;;6.00;5.33;;;;;;;;5111449;27;45206;-76
2022/08/15 01:53:27;;;;;;;;;4.33;4.00;;;;;;;;5107473;27;45344;-77
2022/08/15 01:55:59;;;;;;;;;4.67;4.67;;;;;;;;5101040;27;47779;-75
2022/08/15 01:58:25;;;;;;;;;4.33;4.33;;;;;;;;5113131;27;45383;-75
2022/08/15 02:00:50;;;;;;;;;5.00;5.00;;;;;;;;5103398;27;45485;-77
2022/08/15 02:03:15;;;;;;;;;3.33;3.33;;;;;;;;5084858;27;45249;-75
2022/08/15 02:05:40;;;;;;;;;4.67;4.67;;;;;;;;5083242;27;46484;-76
2022/08/15 02:08:06;;;;;;;;;5.33;5.33;;;;;;;;5097590;27;45299;-76
2022/08/15 02:10:31;;;;;;;;;4.00;4.00;;;;;;;;5091387;27;45319;-76
2022/08/15 02:12:56;;;;;;;;;5.33;5.33;;;;;;;;5094270;27;45371;-76
2022/08/15 02:15:22;;;;;;;;;5.00;5.00;;;;;;;;5092380;27;45935;-76
2022/08/15 02:17:48;;;;;;;;;5.33;4.33;;;;;;;;5097848;27;45311;-76
2022/08/15 02:20:14;;;;;;;;;6.00;5.33;;;;;;;;5098523;27;45418;-76
2022/08/15 02:22:39;;;;;;;;;3.00;3.00;;;;;;;;5083885;27;45439;-76
2022/08/15 02:25:06;;;;;;;;;4.00;4.00;;;;;;;;5096868;27;45423;-76
2022/08/15 02:27:32;;;;;;;;;8.33;6.67;;;;;;;;5097984;27;45322;-76
2022/08/15 02:29:59;;;;;;;;;4.00;4.00;;;;;;;;5095937;27;45382;-76
2022/08/15 02:32:25;;;;;;;;;3.33;3.33;;;;;;;;5080100;27;45810;-76
2022/08/15 02:34:51;;;;;;;;;8.00;6.33;;;;;;;;5093635;27;45453;-76
2022/08/15 02:37:20;;;;;;;;;3.33;3.33;;;;;;;;5083140;27;46075;-76
2022/08/15 02:39:48;;;;;;;;;5.33;5.33;;;;;;;;5092031;27;45327;-75
2022/08/15 02:42:15;;;;;;;;;5.00;5.00;;;;;;;;5077128;27;45451;-75
2022/08/15 02:44:41;;;;;;;;;5.33;5.33;;;;;;;;5089477;27;47141;-74
2022/08/15 02:47:07;;;;;;;;;3.00;3.00;;;;;;;;5096900;27;45394;-76
2022/08/15 02:49:33;;;;;;;;;4.33;4.33;;;;;;;;5086293;27;45319;-76
2022/08/15 02:52:00;;;;;;;;;5.00;5.00;;;;;;;;5088205;27;45314;-76
2022/08/15 02:54:26;;;;;;;;;5.67;4.00;;;;;;;;5097726;27;46273;-77
2022/08/15 02:56:52;;;;;;;;;4.67;4.67;;;;;;;;5097646;27;45446;-76
2022/08/15 02:59:18;;;;;;;;;4.67;4.67;;;;;;;;5097379;27;45201;-76
2022/08/15 03:01:43;;;;;;;;;5.00;5.00;;;;;;;;5097690;27;45582;-77
2022/08/15 03:04:13;;;;;;;;;7.00;5.33;;;;;;;;5096378;27;47011;-76
2022/08/15 03:06:38;;;;;;;;;4.33;4.33;;;;;;;;5097531;27;45363;-76
2022/08/15 03:09:06;;;;;;;;;5.33;4.67;;;;;;;;5092350;27;45615;-76
2022/08/15 03:11:32;;;;;;;;;5.00;5.00;;;;;;;;5089914;27;45362;-76
2022/08/15 03:13:58;;;;;;;;;5.33;4.67;;;;;;;;5093338;27;47114;-76
2022/08/15 03:16:23;;;;;;;;;5.00;5.00;;;;;;;;5097288;27;45454;-76
2022/08/15 03:18:49;;;;;;;;;5.00;5.00;;;;;;;;5072814;28;45376;-76
2022/08/15 03:21:17;;;;;;;;;5.33;5.33;;;;;;;;5091107;27;45298;-77
2022/08/15 03:23:49;;;;;;;;;5.67;5.00;;;;;;;;5092145;27;46164;-76
2022/08/15 03:26:15;;;;;;;;;4.00;4.00;;;;;;;;5092830;27;45679;-76
2022/08/15 03:28:40;;;;;;;;;4.33;4.33;;;;;;;;5078972;27;45450;-76
2022/08/15 03:31:05;;;;;;;;;5.00;5.00;;;;;;;;5083368;27;45395;-76
2022/08/15 03:33:32;;;;;;;;;5.00;4.00;;;;;;;;5096458;27;45365;-76
2022/08/15 03:35:58;;;;;;;;;5.00;5.00;;;;;;;;5080123;27;45375;-76
2022/08/15 03:38:23;;;;;;;;;5.00;5.00;;;;;;;;5093382;27;45438;-76
2022/08/15 03:40:50;;;;;;;;;4.67;4.67;;;;;;;;5096243;27;45451;-76
2022/08/15 03:43:21;;;;;;;;;5.67;5.67;;;;;;;;5095620;27;46209;-76
2022/08/15 03:45:50;;;;;;;;;6.00;6.00;;;;;;;;5096874;27;45240;-76
2022/08/15 03:48:16;;;;;;;;;5.33;5.00;;;;;;;;5097055;27;45366;-76
2022/08/15 03:50:42;;;;;;;;;4.00;4.00;;;;;;;;5097155;27;45162;-77
2022/08/15 03:53:07;;;;;;;;;4.33;4.33;;;;;;;;5096926;27;45264;-76
2022/08/15 03:55:33;;;;;;;;;4.67;4.33;;;;;;;;5096867;27;45426;-76
2022/08/15 03:57:59;;;;;;;;;5.67;5.67;;;;;;;;5096951;27;45430;-76
2022/08/15 04:00:29;;;;;;;;;5.33;5.33;;;;;;;;5093729;27;46898;-75
2022/08/15 04:03:04;;;;;;;;;5.33;5.33;;;;;;;;5085940;27;47046;-77
2022/08/15 04:05:30;;;;;;;;;4.00;4.00;;;;;;;;5096257;27;45358;-77
2022/08/15 04:07:55;;;;;;;;;5.67;5.00;;;;;;;;5086761;27;45410;-76
2022/08/15 04:10:20;;;;;;;;;5.33;5.33;;;;;;;;5081102;27;45562;-75
2022/08/15 04:12:47;;;;;;;;;5.00;5.00;;;;;;;;5075973;28;46050;-78
2022/08/15 04:15:13;;;;;;;;;6.33;6.33;;;;;;;;5076085;27;45349;-77
2022/08/15 04:17:38;;;;;;;;;3.67;3.67;;;;;;;;5094996;27;45337;-76
2022/08/15 04:20:05;;;;;;;;;5.00;5.00;;;;;;;;5086378;27;45372;-77
2022/08/15 04:22:34;;;;;;;;;5.00;5.00;;;;;;;;5083059;27;47143;-76
2022/08/15 04:25:04;;;;;;;;;6.00;5.67;;;;;;;;5092150;27;45471;-77
2022/08/15 04:27:29;;;;;;;;;6.00;6.00;;;;;;;;5096063;27;45222;-77
2022/08/15 04:29:55;;;;;;;;;7.00;7.00;;;;;;;;5084510;27;45592;-76
2022/08/15 04:32:23;;;;;;;;;5.67;5.67;;;;;;;;5096234;27;46155;-76
2022/08/15 04:34:49;;;;;;;;;5.00;5.00;;;;;;;;5079504;27;45312;-77
2022/08/15 04:37:14;;;;;;;;;5.33;5.33;;;;;;;;5083843;27;45619;-76
2022/08/15 04:39:39;;;;;;;;;5.33;5.33;;;;;;;;5095403;27;45318;-77
2022/08/15 04:42:05;;;;;;;;;5.00;5.00;;;;;;;;5095879;27;45489;-77
2022/08/15 04:44:30;;;;;;;;;5.00;5.00;;;;;;;;5089911;27;45358;-76
2022/08/15 04:46:55;;;;;;;;;4.67;4.67;;;;;;;;5093764;27;45377;-76
2022/08/15 04:49:21;;;;;;;;;7.00;7.00;;;;;;;;5085057;27;45306;-77
2022/08/15 04:51:46;;;;;;;;;6.67;5.67;;;;;;;;5096087;27;46307;-77
2022/08/15 04:54:12;;;;;;;;;7.67;6.33;;;;;;;;5096352;27;45237;-76
2022/08/15 04:56:37;;;;;;;;;5.00;4.00;;;;;;;;5091490;27;45332;-76
2022/08/15 04:59:02;;;;;;;;;6.00;6.00;;;;;;;;5095498;27;45529;-76
2022/08/15 05:01:27;;;;;;;;;6.67;6.67;;;;;;;;5095857;27;46075;-77
2022/08/15 05:03:52;;;;;;;;;3.67;3.67;;;;;;;;5083305;27;45292;-76
2022/08/15 05:06:18;;;;;;;;;6.00;6.00;;;;;;;;5096161;27;45354;-76
2022/08/15 05:08:43;;;;;;;;;8.00;8.00;;;;;;;;5089127;27;45458;-77
2022/08/15 05:11:13;;;;;;;;;5.33;5.33;;;;;;;;5089076;27;47449;-76
2022/08/15 05:13:40;;;;;;;;;5.00;5.00;;;;;;;;5095940;27;45430;-77
2022/08/15 05:16:07;;;;;;;;;6.00;6.00;;;;;;;;5095205;27;45333;-76
2022/08/15 05:18:33;;;;;;;;;6.00;6.00;;;;;;;;5095858;27;45233;-76
2022/08/15 05:20:58;;;;;;;;;5.33;5.33;;;;;;;;5085655;27;45385;-77
2022/08/15 05:23:25;;;;;;;;;5.25;5.25;;;;;;;;5074887;27;45371;-77
2022/08/15 05:25:53;;;;;;;;;6.67;6.67;;;;;;;;5087587;27;45378;-76
2022/08/15 05:28:18;;;;;;;;;6.00;6.00;;;;;;;;5089548;27;45351;-77
2022/08/15 05:30:44;;;;;;;;;4.67;4.67;;;;;;;;5095476;27;45887;-77
2022/08/15 05:33:11;;;;;;;;;6.00;6.00;;;;;;;;5095691;27;45516;-76
2022/08/15 05:35:37;;;;;;;;;7.00;6.25;;;;;;;;5089123;27;45376;-75
2022/08/15 05:38:05;;;;;;;;;7.67;7.67;;;;;;;;5091107;27;45613;-76
2022/08/15 05:40:38;;;;;;;;;5.00;5.00;;;;;;;;5078989;27;48377;-76
2022/08/15 05:43:11;;;;;;;;;6.00;6.00;;;;;;;;5089400;27;45296;-76
2022/08/15 05:45:46;;;;;;;;;6.67;6.67;;;;;;;;5073142;27;45348;-77
2022/08/15 05:48:16;;;;;;;;;8.67;7.33;;;;;;;;5098630;27;45422;-77
2022/08/15 05:51:02;;;;;;;;;5.67;5.67;;;;;;;;5090098;27;46224;-77
2022/08/15 05:53:31;;;;;;;;;7.00;6.00;;;;;;;;5065557;27;45585;-77
2022/08/15 05:56:02;;;;;;;;;4.25;4.25;;;;;;;;5090514;27;45352;-77
2022/08/15 05:58:33;;;;;;;;;6.75;5.00;;;;;;;;5078867;27;45371;-77
2022/08/15 06:01:11;;;;;;;;;6.00;6.00;;;;;;;;5098374;27;45403;-75
2022/08/15 06:03:37;;;;;;;;;4.75;4.75;;;;;;;;5080197;27;45483;-76
2022/08/15 06:06:06;;;;;;;;;7.50;7.00;;;;;;;;5097287;27;45422;-76
2022/08/15 06:08:34;;;;;;;;;7.50;7.25;;;;;;;;5096841;27;45439;-76
2022/08/15 06:11:10;;;;;;;;;6.25;6.25;;;;;;;;5092832;27;47437;-76
2022/08/15 06:13:43;;;;;;;;;6.00;6.00;;;;;;;;5085727;27;45505;-77
2022/08/15 06:16:17;;;;;;;;;5.67;5.33;;;;;;;;5081343;27;45476;-76
2022/08/15 06:18:43;;;;;;;;;6.00;6.00;;;;;;;;5098455;27;45206;-77
2022/08/15 06:21:15;;;;;;;;;0.00;0.00;;;;;;;;5098240;27;47488;-77
2022/08/15 06:23:59;;;;;;;;;6.00;6.00;;;;;;;;5097998;27;45451;-78
2022/08/15 06:26:32;;;;;;;;;6.67;6.67;;;;;;;;5083850;27;45355;-77
2022/08/15 06:28:57;;;;;;;;;7.75;6.00;;;;;;;;5098284;27;45394;-76
2022/08/15 06:31:22;;;;;;;;;6.50;6.50;;;;;;;;5098003;27;45426;-76
2022/08/15 06:33:53;;;;;;;;;6.50;6.50;;;;;;;;5098347;27;45308;-76
2022/08/15 06:36:30;;;;;;;;;8.50;6.50;;;;;;;;5067716;27;45352;-77
2022/08/15 06:39:18;;;;;;;;;6.75;6.00;;;;;;;;5097871;27;45382;-76
2022/08/15 06:41:50;;;;;;;;;4.00;4.00;;;;;;;;5085623;27;47257;-77
2022/08/15 06:44:16;;;;;;;;;5.33;5.33;;;;;;;;5087178;27;45538;-76
2022/08/15 06:46:41;;;;;;;;;5.33;5.33;;;;;;;;5098028;27;45437;-76
2022/08/15 06:49:08;;;;;;;;;7.33;6.33;;;;;;;;5097532;27;45482;-77
2022/08/15 06:51:34;;;;;;;;;7.00;7.00;;;;;;;;5095004;27;45477;-76
2022/08/15 06:54:00;;;;;;;;;6.67;6.67;;;;;;;;5069077;27;45374;-77
2022/08/15 06:56:28;;;;;;;;;7.00;6.00;;;;;;;;5097167;27;45277;-77
2022/08/15 06:58:59;;;;;;;;;8.00;8.00;;;;;;;;5093069;27;45472;-77
2022/08/15 07:01:36;;;;;;;;;6.00;6.00;;;;;;;;5095156;27;45332;-77
2022/08/15 07:04:01;;;;;;;;;9.50;8.75;;;;;;;;5096040;27;45387;-76
2022/08/15 07:06:34;;;;;;;;;6.50;6.50;;;;;;;;5094123;27;45319;-78
2022/08/15 07:09:22;;;;;;;;;5.67;5.67;;;;;;;;5063410;27;45411;-76
2022/08/15 07:11:55;;;;;;;;;7.33;7.33;;;;;;;;5028135;28;46555;-76
2022/08/15 07:14:34;;;;;;;;;9.00;6.00;;;;;;;;5021394;28;45395;-77
2022/08/15 07:17:10;;;;;;;;;8.00;8.00;;;;;;;;5034281;28;45485;-76
2022/08/15 07:19:37;;;;;;;;;6.00;6.00;;;;;;;;5034196;28;45424;-77
2022/08/15 07:22:03;;;;;;;;;5.50;5.50;;;;;;;;5032261;28;46434;-77
2022/08/15 07:24:29;;;;;;;;;6.00;6.00;;;;;;;;5033944;28;45307;-77
2022/08/15 07:26:59;;;;;;;;;7.67;6.33;;;;;;;;5030746;28;45511;-76
2022/08/15 07:29:38;;;;;;;;;6.00;5.33;;;;;;;;5027737;28;45461;-76
2022/08/15 07:32:06;;;;;;;;;5.00;5.00;;;;;;;;5034040;28;45449;-77
2022/08/15 07:34:31;;;;;;;;;6.67;6.67;;;;;;;;5034206;28;45398;-77
2022/08/15 07:37:01;;;;;;;;;7.67;7.67;;;;;;;;5018936;28;45369;-76
2022/08/15 07:39:29;;;;;;;;;4.00;4.00;;;;;;;;5014422;28;45515;-75
2022/08/15 07:41:55;;;;;;;;;7.33;7.33;;;;;;;;5018034;28;46168;-76
2022/08/15 07:44:25;;;;;;;;;8.25;8.25;;;;;;;;5022204;28;45454;-77
2022/08/15 07:46:51;;;;;;;;;6.33;5.33;;;;;;;;5028791;28;45487;-77
2022/08/15 07:49:18;;;;;;;;;7.00;7.00;;;;;;;;5061556;27;45356;-76
2022/08/15 07:51:47;;;;;;;;;5.00;5.00;;;;;;;;5095298;27;45973;-76
2022/08/15 07:54:24;;;;;;;;;7.33;7.33;;;;;;;;5084513;27;45758;-76
2022/08/15 07:56:52;;;;;;;;;6.33;6.33;;;;;;;;5092054;27;45330;-75
2022/08/15 07:59:25;;;;;;;;;5.67;5.67;;;;;;;;5089351;27;45477;-76
2022/08/15 08:02:00;;;;;;;;;7.00;7.00;;;;;;;;5095517;27;47929;-77
2022/08/15 08:04:27;;;;;;;;;6.67;6.33;;;;;;;;5077964;27;45399;-76
2022/08/15 08:06:55;;;;;;;;;6.00;6.00;;;;;;;;5090648;27;45349;-76
2022/08/15 08:09:20;;;;;;;;;10.00;7.00;;;;;;;;5089558;27;45444;-76
2022/08/15 08:11:46;;;;;;;;;5.50;5.50;;;;;;;;5088591;27;45300;-76
2022/08/15 08:14:21;;;;;;;;;7.75;6.25;;;;;;;;5093034;27;45299;-76
2022/08/15 08:16:54;;;;;;;;;7.00;7.00;;;;;;;;5088024;27;45306;-77
2022/08/15 08:19:24;;;;;;;;;6.00;6.00;;;;;;;;5096155;27;45413;-76
2022/08/15 08:22:02;;;;;;;;;9.25;7.75;;;;;;;;5096481;27;46027;-77
2022/08/15 08:24:32;;;;;;;;;7.00;6.00;;;;;;;;5095549;27;45383;-76
2022/08/15 08:27:04;;;;;;;;;8.25;8.25;;;;;;;;5076186;28;45311;-76
2022/08/15 08:29:47;;;;;;;;;5.75;5.75;;;;;;;;5090457;27;45409;-76
2022/08/15 08:32:20;;;;;;;;;4.33;4.33;;;;;;;;5096200;27;45373;-76
2022/08/15 08:34:54;;;;;;;;;7.00;7.00;;;;;;;;5081591;27;45562;-76
2022/08/15 08:37:28;;;;;;;;;6.67;6.67;;;;;;;;5084937;27;45356;-76
2022/08/15 08:39:53;;;;;;;;;6.33;6.33;;;;;;;;5093495;27;45371;-77
2022/08/15 08:42:33;;;;;;;;;5.25;5.25;;;;;;;;5083461;27;46461;-76
2022/08/15 08:45:07;;;;;;;;;6.75;6.00;;;;;;;;5091598;27;45460;-76
2022/08/15 08:47:35;;;;;;;;;8.50;7.25;;;;;;;;5090182;27;45525;-77
2022/08/15 08:50:19;;;;;;;;;6.75;6.75;;;;;;;;5091298;27;45214;-77
2022/08/15 08:52:59;;;;;;;;;7.00;6.33;;;;;;;;5095969;27;46287;-77
2022/08/15 08:55:25;;;;;;;;;7.75;7.75;;;;;;;;5095975;27;45391;-76
2022/08/15 08:57:53;;;;;;;;;6.60;6.60;;;;;;;;5096520;27;45371;-76
2022/08/15 09:00:20;;;;;;;;;7.25;7.25;;;;;;;;5095875;27;45425;-76
2022/08/15 09:02:45;;;;;;;;;6.00;4.75;;;;;;;;5095523;27;46125;-77
2022/08/15 09:05:22;;;;;;;;;6.00;6.00;;;;;;;;5094168;27;45320;-77
2022/08/15 09:07:49;;;;;;;;;7.00;7.00;;;;;;;;5067065;27;45640;-75
2022/08/15 09:10:32;;;;;;;;;5.33;5.33;;;;;;;;5083633;27;45296;-76
2022/08/15 09:15:42;;;;;;;;;8.25;7.75;;;;;;;;5097221;27;45583;-76
2022/08/15 09:18:09;;;;;;;;;7.00;7.00;;;;;;;;5097525;27;45275;-77
2022/08/15 09:20:36;;;;;;;;;7.67;7.67;;;;;;;;5099521;27;45367;-75
2022/08/15 09:23:03;;;;;;;;;8.33;8.33;;;;;;;;5099079;27;47524;-77
2022/08/15 09:25:31;;;;;;;;;7.67;7.67;;;;;;;;5089856;27;45272;-77
2022/08/15 09:28:05;;;;;;;;;6.67;6.67;;;;;;;;5080807;27;45305;-77
2022/08/15 09:30:32;;;;;;;;;6.00;6.00;;;;;;;;5099203;27;45286;-78
2022/08/15 09:33:16;;;;;;;;;8.33;8.33;;;;;;;;5098506;27;46337;-77
2022/08/15 09:36:00;;;;;;;;;7.33;7.33;;;;;;;;5092079;27;45379;-77
2022/08/15 09:38:28;;;;;;;;;6.00;6.00;;;;;;;;5096764;27;45405;-78
2022/08/15 09:41:12;;;;;;;;;7.00;7.00;;;;;;;;5098190;27;45311;-77
2022/08/15 09:43:40;;;;;;;;;5.00;5.00;;;;;;;;5094709;27;45520;-77
2022/08/15 09:46:25;;;;;;;;;7.50;7.25;;;;;;;;5098600;27;45429;-77
2022/08/15 09:48:50;;;;;;;;;8.33;7.00;;;;;;;;5098206;27;45382;-76
2022/08/15 09:51:33;;;;;;;;;6.00;6.00;;;;;;;;5099097;27;45318;-77
2022/08/15 09:54:05;;;;;;;;;7.00;5.67;;;;;;;;5098877;27;45398;-77
2022/08/15 09:56:32;;;;;;;;;8.00;8.00;;;;;;;;5098676;27;45423;-77
2022/08/15 09:59:06;;;;;;;;;7.67;7.00;;;;;;;;5093792;27;45251;-76
2022/08/15 10:01:41;;;;;;;;;7.50;7.50;;;;;;;;5078401;27;45326;-77
2022/08/15 10:04:07;;;;;;;;;7.33;7.33;;;;;;;;5097388;27;46237;-78
2022/08/15 10:06:49;;;;;;;;;9.00;9.00;;;;;;;;5098492;27;45282;-76
2022/08/15 10:09:28;;;;;;;;;6.50;6.50;;;;;;;;5097628;27;45241;-77
2022/08/15 10:11:59;;;;;;;;;6.33;6.33;;;;;;;;5092385;27;45563;-77
2022/08/15 10:14:26;;;;;;;;;7.75;7.75;;;;;;;;5097768;27;46273;-77
2022/08/15 10:16:54;;;;;;;;;6.67;6.67;;;;;;;;5098155;27;45315;-77
2022/08/15 10:19:48;;;;;;;;;8.67;6.33;;;;;;;;5098410;27;45335;-77
2022/08/15 10:22:22;;;;;;;;;8.00;8.00;;;;;;;;5084504;27;45454;-77
2022/08/15 10:25:06;;;;;;;;;6.33;6.33;;;;;;;;5094131;27;45344;-77
2022/08/15 10:27:51;;;;;;;;;7.00;7.00;;;;;;;;5090142;27;45341;-78
2022/08/15 10:30:17;;;;;;;;;5.25;5.25;;;;;;;;5097894;27;45225;-77
2022/08/15 10:32:43;;;;;;;;;8.00;8.00;;;;;;;;5098447;27;45402;-77
2022/08/15 10:35:08;;;;;;;;;8.00;8.00;;;;;;;;5094717;27;47053;-77
2022/08/15 10:37:41;;;;;;;;;7.00;7.00;;;;;;;;5088544;27;45557;-77
2022/08/15 10:40:17;;;;;;;;;8.33;7.00;;;;;;;;5098134;27;45307;-77
2022/08/15 10:43:02;;;;;;;;;6.00;6.00;;;;;;;;5098340;27;45523;-77
2022/08/15 10:45:30;;;;;;;;;8.00;8.00;;;;;;;;5096633;27;46450;-77
2022/08/15 10:48:06;;;;;;;;;7.00;7.00;;;;;;;;5096195;27;45502;-76
2022/08/15 10:50:45;;;;;;;;;7.50;6.75;;;;;;;;5093711;27;45415;-77
2022/08/15 10:53:11;;;;;;;;;7.00;7.00;;;;;;;;5091329;27;45384;-78
2022/08/15 10:55:37;;;;;;;;;8.00;8.00;;;;;;;;5096922;27;45309;-77
2022/08/15 10:58:21;;;;;;;;;6.00;6.00;;;;;;;;5097425;27;45339;-77
2022/08/15 11:00:53;;;;;;;;;7.67;6.33;;;;;;;;5097540;27;45386;-77
2022/08/15 11:03:22;;;;;;;;;8.00;8.00;;;;;;;;5097819;27;45237;-77
2022/08/15 11:05:58;;;;;;;;;8.67;7.33;;;;;;;;5097713;27;45209;-77
2022/08/15 11:08:24;;;;;;;;;6.00;6.00;;;;;;;;5097455;27;45894;-78
2022/08/15 11:10:50;;;;;;;;;6.67;5.00;;;;;;;;5081909;27;45360;-77
2022/08/15 11:13:17;;;;;;;;;7.33;7.33;;;;;;;;5097698;27;45436;-77
2022/08/15 11:15:50;;;;;;;;;9.00;7.67;;;;;;;;5096731;27;47206;-77
2022/08/15 11:18:21;;;;;;;;;6.33;6.00;;;;;;;;5097388;27;45442;-77
2022/08/15 11:20:52;;;;;;;;;8.67;8.00;;;;;;;;5097592;27;45438;-76
2022/08/15 11:23:30;;;;;;;;;8.00;6.00;;;;;;;;5097490;27;45276;-77
2022/08/15 11:25:56;;;;;;;;;6.50;5.50;;;;;;;;5097277;27;46181;-77
2022/08/15 11:28:24;;;;;;;;;6.33;6.33;;;;;;;;5096970;27;45372;-77
2022/08/15 11:30:56;;;;;;;;;7.50;7.25;;;;;;;;5086495;27;45431;-77
2022/08/15 11:33:27;;;;;;;;;6.67;6.67;;;;;;;;5095467;27;45291;-76
2022/08/15 11:36:03;;;;;;;;;7.67;6.00;;;;;;;;5088678;27;45932;-76
2022/08/15 11:38:29;;;;;;;;;7.67;7.67;;;;;;;;5095242;27;45310;-77
2022/08/15 11:40:55;;;;;;;;;7.00;7.00;;;;;;;;5085797;27;45448;-77
2022/08/15 11:43:21;;;;;;;;;7.00;7.00;;;;;;;;5078404;27;45311;-77
2022/08/15 11:45:48;;;;;;;;;8.00;7.00;;;;;;;;5088699;27;45249;-78
2022/08/15 11:48:18;;;;;;;;;6.00;6.00;;;;;;;;5078328;27;45334;-77
2022/08/15 11:50:54;;;;;;;;;7.33;7.33;;;;;;;;5081887;27;45368;-78
2022/08/15 11:53:19;;;;;;;;;5.33;5.33;;;;;;;;5091169;27;45303;-78
2022/08/15 11:55:45;;;;;;;;;6.00;6.00;;;;;;;;5095580;27;46054;-78
2022/08/15 11:58:13;;;;;;;;;6.33;5.67;;;;;;;;5089725;27;45213;-77
2022/08/15 12:00:40;;;;;;;;;6.67;6.67;;;;;;;;5095216;27;45904;-77
2022/08/15 12:03:23;;;;;;;;;5.67;5.67;;;;;;;;5085903;27;45427;-78
2022/08/15 12:05:50;;;;;;;;;8.33;8.33;;;;;;;;5095560;27;46245;-77
2022/08/15 12:08:21;;;;;;;;;4.00;4.00;;;;;;;;5096513;27;45421;-78
2022/08/15 12:10:46;;;;;;;;;6.33;6.33;;;;;;;;5094300;27;45313;-77
2022/08/15 12:13:15;;;;;;;;;7.00;5.67;;;;;;;;5096864;27;45304;-78
2022/08/15 12:15:42;;;;;;;;;5.67;5.67;;;;;;;;5079531;27;47050;-78
2022/08/15 12:18:07;;;;;;;;;5.50;5.50;;;;;;;;5095060;27;45507;-78
2022/08/15 12:20:45;;;;;;;;;5.00;5.00;;;;;;;;5096779;27;45371;-78
2022/08/15 12:23:23;;;;;;;;;6.75;6.75;;;;;;;;5096281;27;45701;-78
2022/08/15 12:25:55;;;;;;;;;7.00;6.00;;;;;;;;5096136;27;46941;-77
2022/08/15 12:28:20;;;;;;;;;5.00;4.00;;;;;;;;5096329;27;45596;-77
2022/08/15 12:30:46;;;;;;;;;8.00;7.33;;;;;;;;5085737;27;45289;-77
2022/08/15 12:33:12;;;;;;;;;7.67;7.67;;;;;;;;5093102;27;45453;-77
2022/08/15 12:35:37;;;;;;;;;6.00;6.00;;;;;;;;5089721;27;46065;-77
2022/08/15 12:38:02;;;;;;;;;6.67;5.33;;;;;;;;5090633;27;45486;-77
2022/08/15 12:40:28;;;;;;;;;5.67;5.67;;;;;;;;5095375;27;45292;-77
2022/08/15 12:42:54;;;;;;;;;6.00;6.00;;;;;;;;5096265;27;45250;-78
2022/08/15 12:45:19;;;;;;;;;6.00;6.00;;;;;;;;5095373;27;46081;-78
2022/08/15 12:47:45;;;;;;;;;6.00;6.00;;;;;;;;5098619;27;45388;-77
2022/08/15 12:50:11;;;;;;;;;5.33;5.33;;;;;;;;5085408;27;45462;-77
2022/08/15 12:52:36;;;;;;;;;6.00;6.00;;;;;;;;5099867;27;45431;-77
2022/08/15 12:55:02;;;;;;;;;6.00;6.00;;;;;;;;5099425;27;45393;-77
2022/08/15 12:57:28;;;;;;;;;6.33;6.00;;;;;;;;5092439;27;45526;-77
2022/08/15 12:59:53;;;;;;;;;4.67;4.67;;;;;;;;5079274;27;45308;-77
2022/08/15 13:02:19;;;;;;;;;5.33;5.33;;;;;;;;5098075;27;45216;-77
2022/08/15 13:04:47;;;;;;;;;5.33;5.33;;;;;;;;5099440;27;46580;-78
2022/08/15 13:07:13;;;;;;;;;5.75;5.75;;;;;;;;5085145;27;45389;-77
2022/08/15 13:09:38;;;;;;;;;4.33;4.33;;;;;;;;5098041;27;45317;-78
2022/08/15 13:12:04;;;;;;;;;8.33;7.00;;;;;;;;5093838;27;45549;-77
2022/08/15 13:14:30;;;;;;;;;6.67;5.67;;;;;;;;5091916;27;46365;-75
2022/08/15 13:16:56;;;;;;;;;7.00;7.00;;;;;;;;5090910;27;45489;-76
2022/08/15 13:19:23;;;;;;;;;8.67;5.67;;;;;;;;5093964;27;45447;-76
2022/08/15 13:24:33;;;;;;;;;5.00;5.00;;;;;;;;5098780;27;45948;-76
2022/08/15 13:26:59;;;;;;;;;7.00;7.00;;;;;;;;5099355;27;45560;-76
2022/08/15 13:29:24;;;;;;;;;6.67;6.67;;;;;;;;5099563;27;45438;-76
2022/08/15 13:31:49;;;;;;;;;5.00;5.00;;;;;;;;5099378;27;45359;-76
2022/08/15 13:34:16;;;;;;;;;5.25;5.25;;;;;;;;5099057;27;46096;-76
2022/08/15 13:36:42;;;;;;;;;5.00;5.00;;;;;;;;5083564;27;45415;-76
2022/08/15 13:39:12;;;;;;;;;5.00;5.00;;;;;;;;5088042;27;45367;-76
2022/08/15 13:41:38;;;;;;;;;5.33;5.33;;;;;;;;5084587;27;45372;-76
2022/08/15 13:44:05;;;;;;;;;5.33;5.33;;;;;;;;5089394;27;45393;-76
2022/08/15 13:46:31;;;;;;;;;4.67;4.67;;;;;;;;5093022;27;45277;-76
2022/08/15 13:48:59;;;;;;;;;7.33;7.33;;;;;;;;5089544;27;45352;-76
2022/08/15 13:51:27;;;;;;;;;5.00;5.00;;;;;;;;5086328;27;45349;-76
2022/08/15 13:53:53;;;;;;;;;6.00;6.00;;;;;;;;5092160;27;46149;-76
2022/08/15 13:56:19;;;;;;;;;4.33;4.33;;;;;;;;5089224;27;45332;-76
2022/08/15 13:58:44;;;;;;;;;5.00;5.00;;;;;;;;5082646;27;45428;-76
2022/08/15 14:01:11;;;;;;;;;5.75;5.75;;;;;;;;5095410;27;45477;-76
2022/08/15 14:03:38;;;;;;;;;5.67;5.67;;;;;;;;5084215;27;45555;-78
2022/08/15 14:06:03;;;;;;;;;7.00;6.00;;;;;;;;5098952;27;45453;-78
2022/08/15 14:08:28;;;;;;;;;6.00;6.00;;;;;;;;5077952;27;45560;-78
2022/08/15 14:10:55;;;;;;;;;6.00;6.00;;;;;;;;5097168;27;45308;-77
2022/08/15 14:13:21;;;;;;;;;6.00;5.00;;;;;;;;5098881;27;46003;-77
2022/08/15 14:15:47;;;;;;;;;5.00;4.67;;;;;;;;5082944;27;45437;-78
2022/08/15 14:18:13;;;;;;;;;5.33;5.33;;;;;;;;5093549;27;45323;-77
2022/08/15 14:20:40;;;;;;;;;7.00;6.67;;;;;;;;5089607;27;45471;-77
2022/08/15 14:23:05;;;;;;;;;3.00;3.00;;;;;;;;5075068;27;48481;-77
2022/08/15 14:25:30;;;;;;;;;6.00;6.00;;;;;;;;5097289;27;45407;-78
2022/08/15 14:27:56;;;;;;;;;5.67;5.67;;;;;;;;5098138;27;45265;-78
2022/08/15 14:30:22;;;;;;;;;6.67;6.67;;;;;;;;5090951;27;45291;-77
2022/08/15 14:32:48;;;;;;;;;5.33;5.33;;;;;;;;5091394;27;45961;-77
2022/08/15 14:35:16;;;;;;;;;7.33;5.33;;;;;;;;5094530;27;45339;-76
2022/08/15 14:37:44;;;;;;;;;5.00;5.00;;;;;;;;5089317;27;45474;-77
2022/08/15 14:40:11;;;;;;;;;4.00;4.00;;;;;;;;5093247;27;45372;-77
2022/08/15 14:42:37;;;;;;;;;4.00;4.00;;;;;;;;5087407;27;47117;-77
2022/08/15 14:45:02;;;;;;;;;5.33;5.33;;;;;;;;5082650;27;45241;-77
2022/08/15 14:47:27;;;;;;;;;5.00;5.00;;;;;;;;5097922;27;45347;-77
2022/08/15 14:49:54;;;;;;;;;6.00;6.00;;;;;;;;5092079;27;45553;-77
2022/08/15 14:52:19;;;;;;;;;5.67;5.67;;;;;;;;5098010;27;47297;-77
2022/08/15 14:54:46;;;;;;;;;6.00;6.00;;;;;;;;5097990;27;45319;-77
2022/08/15 14:57:12;;;;;;;;;4.67;4.67;;;;;;;;5084550;27;45321;-76
2022/08/15 14:59:38;;;;;;;;;5.33;5.33;;;;;;;;5095779;27;45313;-76
2022/08/15 15:02:06;;;;;;;;;5.00;5.00;;;;;;;;5093708;27;46359;-77